米子 の空港の天気 - METARとTAF

美保飛行場 ( RJOH / YGJ ) - 鳥取県米子市
飛行場実況気象(Metar)
観測時間07/22 09:00 JST (07/22 00:00 UTC)
風向・風速南南西 2m/s
視程10km以上
天気現象
少しの雲 雲底高度 1220m
全天の4割程度の雲 雲底高度 7620m
気温31℃
湿度55%
気圧1010hPa
METARRJOH 220000Z 21004KT 9999 FEW040 SCT250 31/21 Q1010
過去の天気等 Google飛行場航空写真 Wunderground天気予報

過去48時間のMETAR

飛行場予報(TAF)
発表時間: 7/22 08:07 JST (7/21 23:07 UTC)
予報対象時間: 22日9時 JST ~ 23日15時 JST
風向・風速西南西 3m/s
視程8,000m
天気現象弱いしゅう雨
少しの雲 雲底高度 610m
全天の8割程度の雲 雲底高度 1,520m
22日11時 JST ~ 22日13時 JST に徐々に
風向・風速東北東 4m/s
22日14時 JST ~ 22日18時 JST に一時的に
天気現象弱い雷雨
少しの雲 雲底高度 300m
全天の4割程度の雲 雲底高度 610m
少しの積乱雲 雲底高度 760m
全天の8割程度の雲 雲底高度 1,070m
22日21時 JST ~ 22日24時 JST に徐々に
風向・風速南 3m/s
23日12時 JST ~ 23日15時 JST に徐々に
風向・風速西 7m/s
TAF RJOH 212307Z 2200/2306 25005KT 8000 -SHRA FEW020 BKN050
BECMG 2202/2204 06007KT
TEMPO 2205/2209 -TSRA FEW010 SCT020 FEW025CB BKN035
BECMG 2212/2215 18005KT
BECMG 2303/2306 27014KT
日本の空港のMETAR・TAFへのリンク

RJTT 東京国際空港
RJAA 新東京国際空港
RJBB 関西国際空港
RJOO 大阪空港
RJGG 中部国際空港
RJCC 新千歳空港
RJFF 福岡空港
ROAH 那覇空港


RJEC 旭川空港
RJCH 函館空港
RJCK 釧路空港
RJCM 女満別空港
RJCB 帯広空港
RJSA 青森空港
RJSS 仙台空港
RJSK 秋田空港
RJSF 福島空港
RJAH 茨城空港
RJSN 新潟空港
RJNT 富山空港
RJNK 小松飛行場
RJNS 静岡空港
RJOH 美保飛行場
RJOC 出雲空港
RJOB 岡山空港
RJOA 広島空港
RJOI 岩国飛行場
RJOT 高松空港
RJOM 松山空港
RJOK 高知空港
RJFR 北九州空港
RJFT 熊本空港
RJFU 長崎空港
RJFS 佐賀空港
RJFO 大分空港
RJFM 宮崎空港
RJFK 鹿児島空港
ROIG 石垣島空港
RJTY 横田飛行場
ROTM 普天間飛行場
RODN 嘉手納飛行場